• Join FlightAware (Why Join?)
  • Login
  • US Flag 
01:49AM EDT


 

Airport Tracker/Info


-or-


 

Live Flight TrackerFlight Track Log ✈ BSK8643 ✈ 05-May-2013 ✈ KANB - KJQF

Flight Track Log - Related Links

Times and Time Zones

All times are in EDT time to prevent confusion due to time zone crossing. See the BSK8643 flight status page for this flight to view local times or setup timezone preferences in your user account.

Time Position Orientation Groundspeed Altitude Reporting Facility
EDT Latitude Longitude Course Direction KTS MPH feet Rate Location/Type
10:36PM 33.5103 -85.9472 86° East 231 266 4,200  Level Atlanta Center
10:36PM 33.4975 -85.9569 212° Southwest 245 282 4,600 2,520 Climbing Atlanta Center
10:37PM 33.4244 -85.9553 179° South 255 293 7,400 2,700 Climbing Atlanta Center
10:38PM 33.4092 -85.8628 101° East 194 223 10,100 1,920 Climbing Atlanta Center
10:39PM 33.4108 -85.7558 89° East 256 295 11,300 2,100 Climbing Atlanta Center
10:40PM 33.6028 -85.0033 86° East  Level FlightAware Approximate
10:41PM 33.6099 -84.8824 86° East  Level FlightAware Approximate
10:45PM 33.5180 -84.9320 89° East 458 527 25,200  Level FlightAware
10:46PM 33.5380 -84.8430 75° East 467 537 26,100 1,500 Climbing FlightAware
10:47PM 33.5660 -84.7210 75° East 472 543 27,400 1,920 Climbing FlightAware
10:47PM 33.5773 -84.6677 76° East 470 541 28,200 1,620 Climbing FlightAware ADS-B
10:48PM 33.6010 -84.5597 75° East 474 545 29,000 480 Climbing FlightAware ADS-B
10:48PM 33.6341 -84.4153 75° East 478 550 29,000  Level FlightAware ADS-B
10:49PM 33.6420 -84.3876 71° East 481 554 29,000  Level FlightAware ADS-B
10:49PM 33.6642 -84.3095 71° East 479 551 29,000  Level FlightAware ADS-B
10:50PM 33.6980 -84.1880 71° East 476 548 29,000  Level FlightAware
10:50PM 33.7103 -84.1462 71° East 477 549 29,000  Level FlightAware ADS-B
10:51PM 33.7557 -83.9844 71° East 477 549 29,000  Level FlightAware ADS-B
10:52PM 33.7851 -83.8799 71° East 477 549 29,000  Level FlightAware ADS-B
10:53PM 33.8140 -83.7757 72° East 480 552 29,000  Level FlightAware ADS-B
10:53PM 33.8358 -83.6973 71° East 481 554 29,000 -480 Level FlightAware ADS-B
10:57PM 34.0490 -83.1180 66° East 461 531 27,000 -540 Descending FlightAware
10:58PM 34.0900 -83.0270 61° Northeast 459 528 26,500 -840 Descending FlightAware
10:59PM 34.1280 -82.9420 62° Northeast 444 511 25,900 -1,020 Descending FlightAware
10:59PM 34.1720 -82.8410 62° Northeast 429 494 25,100 -1,080 Descending FlightAware
11:00PM 34.2030 -82.7710 62° Northeast 420 483 24,500 -840 Descending FlightAware
11:01PM 34.2400 -82.6860 62° Northeast 420 483 24,000 -360 Descending FlightAware
11:01PM 34.2840 -82.5860 62° Northeast 434 499 24,000  Level FlightAware
11:02PM 34.3210 -82.5000 62° Northeast 436 502 24,000  Level FlightAware
11:03PM 34.3630 -82.4050 62° Northeast 433 498 24,000  Level FlightAware
11:04PM 34.4010 -82.3180 62° Northeast 433 498 24,000 -1,440 Level FlightAware
11:04PM 34.4430 -82.2210 62° Northeast 448 516 22,000 -2,700 Descending FlightAware
11:05PM 34.4790 -82.1360 63° Northeast 446 513 20,200 -2,520 Descending FlightAware
11:06PM 34.5270 -82.0250 62° Northeast 434 499 18,300 -2,160 Descending FlightAware
11:07PM 34.5700 -81.9250 62° Northeast 409 471 16,600 -1,200 Descending FlightAware
11:07PM 34.6030 -81.8500 62° Northeast 407 468 16,500 -120 Descending FlightAware
11:08PM 34.6330 -81.7820 62° Northeast 407 468 16,500  Level FlightAware
11:09PM 34.6630 -81.7130 62° Northeast 407 468 16,500  Level FlightAware
11:09PM 34.6930 -81.6440 62° Northeast 407 468 16,500  Level FlightAware
11:10PM 34.7300 -81.5580 62° Northeast 407 468 16,500 -2,220 Level FlightAware
11:12PM 34.7890 -81.4200 62° Northeast 256 295 11,000 -2,400 Descending FlightAware
11:12PM 34.7950 -81.3720 81° East 256 295 11,000  Level FlightAware
11:13PM 34.8000 -81.3230 83° East 256 295 11,000 -2,040 Level FlightAware
11:14PM 34.8003 -81.2664 83° East 244 281 8,800 -2,940 Descending Atlanta Center
11:14PM 34.8036 -81.2333 83° East 238 274 8,300 -900 Descending Atlanta Center
11:15PM 34.8108 -81.1900 79° East 242 278 7,900 -840 Descending Atlanta Center
11:15PM 34.8122 -81.1597 87° East 238 274 7,500 -900 Descending Atlanta Center
11:16PM 34.8175 -81.1139 82° East 217 250 7,000 -900 Descending Atlanta Center
11:16PM 34.8189 -81.0886 86° East 223 257 6,600 -900 Descending Atlanta Center
11:16PM 34.8242 -81.0481 81° East 212 244 6,200 -1,140 Descending Atlanta Center
11:17PM 34.8297 -81.0175 78° East 216 249 5,500 -1,020 Descending Atlanta Center
11:18PM 34.8331 -80.9819 83° East 202 232 5,200 -840 Descending Atlanta Center
11:18PM 34.8383 -80.9464 80° East 199 229 4,700 -720 Descending Atlanta Center
11:19PM 34.8439 -80.9183 76° East 177 204 4,500 -840 Descending Atlanta Center
11:19PM 34.8894 -80.8989 19° North 222 255 3,600 -780 Descending Atlanta Center
11:20PM 34.9389 -80.8742 22° Northeast 195 224 3,000 -300 Descending Atlanta Center
11:21PM 34.9883 -80.8519 20° North 177 204 3,000  Level Atlanta Center
11:22PM 35.0336 -80.8300 22° Northeast 175 201 3,000 -60 Level Atlanta Center
11:23PM 35.0811 -80.8103 19° North 175 201 2,900 -120 Descending Atlanta Center
11:25PM 35.1264 -80.7858 24° Northeast 166 191 2,800 -180 Descending Atlanta Center
11:26PM 35.1697 -80.7661 20° North 159 183 2,600 -180 Descending Atlanta Center
11:27PM 35.2153 -80.7492 17° North 168 193 2,500 -60 Descending Atlanta Center
11:28PM 35.2567 -80.7400 10° North 169 194 2,500 -180 Level Atlanta Center
11:29PM 35.3022 -80.7306 10° North 166 191 2,200 -600 Descending Atlanta Center
11:30PM 35.3478 -80.7183 12° North 141 162 1,300 -540 Descending Atlanta Center
11:31PM 35.3792 -80.7147 North 139 160 1,100 -120 Descending Atlanta Center
11:33PM 35.3792 -80.7147 209° Southwest 139 160 1,100  Level Atlanta Center